KDUH

Toledo Suburban Airport

Lambertville, Michigan, USA
METAR KDUH 280055Z AUTO 00000KT 10SM CLR 26/21 A2990 RMK AO2 T02640206
Observed Flight Rules
May-28 @ 00:55 UTC (15 minutes ago) Visual Flight Rules
Visibility Clouds
10 miles
  • Clear skies
Temperatures Readings
Current 26°C / 79°F
Dewpoint 21°C / 70°F
Humidity 74%
Altimeter 29.9" Hg
Pressure 1013 hPa
Elevation 204
METAR KDUH 280055Z AUTO 00000KT 10SM CLR 26/21 A2990 RMK AO2 T02640206
Observed Flight Rules
May-28 @ 00:55 UTC
(15 minutes ago)
VFR
Clouds
  • Clear skies
Temperature Dewpoint
26°C / 79°F 21°C / 70°F
Humidity Altimeter Pressure
74% 29.9" Hg 1013 hPa